Terminal Aerodrome Forecast
Issued by NWS

Home | Current Version | Previous Version | Text Only | Print | Product List | Glossary On
Versions: 1 2 3 4 5 6 7 8 9 10 11 12 13 14 15 16 17 18 19 20 21 22 23 24 25 26 27 28 29 30 31 32 33 34 35 36 37 38 39 40 41 42 43 44
000
FTUS46 KEKA 240553
TAFACV
TAF
KACV 240553Z 2406/2506 08004KT P6SM SCT250
     FM240800 09003KT P6SM BKN120 BKN250
     FM241200 10003KT P6SM SCT007 BKN080
     FM241600 10003KT 6SM -DZ SCT007 BKN040 OVC060
     FM242000 29004KT 6SM -DZ SCT007 BKN035 OVC060
     FM250300 04003KT 6SM BR BKN007 OVC025=

USA.gov is the U.S. government's official web portal to all federal, state and local government web resources and services.